sensor_id;sensor_type;location;lat;lon;timestamp;P1;durP1;ratioP1;P2;durP2;ratioP2
70832;SDS011;71099;59.528;17.886;2024-03-06T00:01:30;6.93;;;4.05;;
70832;SDS011;71099;59.528;17.886;2024-03-06T00:03:59;6.10;;;3.72;;
70832;SDS011;71099;59.528;17.886;2024-03-06T00:06:24;8.40;;;3.83;;
70832;SDS011;71099;59.528;17.886;2024-03-06T00:08:50;6.40;;;4.22;;
70832;SDS011;71099;59.528;17.886;2024-03-06T00:11:16;7.18;;;3.88;;
70832;SDS011;71099;59.528;17.886;2024-03-06T00:13:42;8.60;;;4.22;;
70832;SDS011;71099;59.528;17.886;2024-03-06T00:16:08;9.75;;;4.30;;
70832;SDS011;71099;59.528;17.886;2024-03-06T00:18:33;8.63;;;3.92;;
70832;SDS011;71099;59.528;17.886;2024-03-06T00:20:59;5.57;;;3.47;;
70832;SDS011;71099;59.528;17.886;2024-03-06T00:23:25;10.35;;;4.63;;
70832;SDS011;71099;59.528;17.886;2024-03-06T00:25:51;5.72;;;3.78;;
70832;SDS011;71099;59.528;17.886;2024-03-06T00:28:16;5.93;;;3.70;;
70832;SDS011;71099;59.528;17.886;2024-03-06T00:30:41;10.38;;;4.93;;
70832;SDS011;71099;59.528;17.886;2024-03-06T00:33:07;7.47;;;3.60;;
70832;SDS011;71099;59.528;17.886;2024-03-06T00:35:32;8.38;;;4.85;;
70832;SDS011;71099;59.528;17.886;2024-03-06T00:37:58;7.38;;;4.05;;
70832;SDS011;71099;59.528;17.886;2024-03-06T00:40:27;7.05;;;4.65;;
70832;SDS011;71099;59.528;17.886;2024-03-06T00:42:55;10.55;;;4.53;;
70832;SDS011;71099;59.528;17.886;2024-03-06T00:45:20;8.57;;;4.82;;
70832;SDS011;71099;59.528;17.886;2024-03-06T00:47:46;11.43;;;5.55;;
70832;SDS011;71099;59.528;17.886;2024-03-06T00:50:11;9.40;;;5.07;;
70832;SDS011;71099;59.528;17.886;2024-03-06T00:52:37;8.30;;;4.95;;
70832;SDS011;71099;59.528;17.886;2024-03-06T00:55:03;8.77;;;4.88;;
70832;SDS011;71099;59.528;17.886;2024-03-06T00:57:30;5.68;;;3.58;;
70832;SDS011;71099;59.528;17.886;2024-03-06T00:59:55;10.75;;;4.50;;
70832;SDS011;71099;59.528;17.886;2024-03-06T01:02:21;9.02;;;4.25;;
70832;SDS011;71099;59.528;17.886;2024-03-06T01:04:46;8.40;;;5.35;;
70832;SDS011;71099;59.528;17.886;2024-03-06T01:07:12;8.18;;;4.97;;
70832;SDS011;71099;59.528;17.886;2024-03-06T01:09:37;9.02;;;3.97;;
70832;SDS011;71099;59.528;17.886;2024-03-06T01:12:03;7.47;;;5.05;;
70832;SDS011;71099;59.528;17.886;2024-03-06T01:14:31;7.00;;;3.83;;
70832;SDS011;71099;59.528;17.886;2024-03-06T01:16:57;13.63;;;5.05;;
70832;SDS011;71099;59.528;17.886;2024-03-06T01:19:22;6.75;;;4.40;;
70832;SDS011;71099;59.528;17.886;2024-03-06T01:21:48;8.27;;;5.13;;
70832;SDS011;71099;59.528;17.886;2024-03-06T01:24:14;10.00;;;5.70;;
70832;SDS011;71099;59.528;17.886;2024-03-06T01:26:39;9.57;;;5.05;;
70832;SDS011;71099;59.528;17.886;2024-03-06T01:29:05;7.43;;;5.13;;
70832;SDS011;71099;59.528;17.886;2024-03-06T01:31:31;7.22;;;4.40;;
70832;SDS011;71099;59.528;17.886;2024-03-06T01:33:57;9.25;;;6.45;;
70832;SDS011;71099;59.528;17.886;2024-03-06T01:36:22;8.32;;;4.32;;
70832;SDS011;71099;59.528;17.886;2024-03-06T01:38:47;9.13;;;4.82;;
70832;SDS011;71099;59.528;17.886;2024-03-06T01:41:14;9.75;;;4.70;;
70832;SDS011;71099;59.528;17.886;2024-03-06T01:43:40;6.57;;;4.35;;
70832;SDS011;71099;59.528;17.886;2024-03-06T01:46:06;10.23;;;4.25;;
70832;SDS011;71099;59.528;17.886;2024-03-06T01:48:31;7.47;;;4.15;;
70832;SDS011;71099;59.528;17.886;2024-03-06T01:50:59;8.70;;;4.45;;
70832;SDS011;71099;59.528;17.886;2024-03-06T01:53:27;9.60;;;5.05;;
70832;SDS011;71099;59.528;17.886;2024-03-06T01:55:55;8.43;;;4.95;;
70832;SDS011;71099;59.528;17.886;2024-03-06T01:58:21;8.43;;;5.10;;
70832;SDS011;71099;59.528;17.886;2024-03-06T02:00:49;12.45;;;5.35;;
70832;SDS011;71099;59.528;17.886;2024-03-06T02:03:15;8.18;;;5.22;;
70832;SDS011;71099;59.528;17.886;2024-03-06T02:05:43;6.47;;;4.65;;
70832;SDS011;71099;59.528;17.886;2024-03-06T02:08:09;10.20;;;4.25;;
70832;SDS011;71099;59.528;17.886;2024-03-06T02:10:34;9.13;;;5.35;;
70832;SDS011;71099;59.528;17.886;2024-03-06T02:13:03;7.32;;;4.82;;
70832;SDS011;71099;59.528;17.886;2024-03-06T02:15:29;8.70;;;5.05;;
70832;SDS011;71099;59.528;17.886;2024-03-06T02:17:54;7.70;;;5.00;;
70832;SDS011;71099;59.528;17.886;2024-03-06T02:20:23;9.23;;;4.50;;
70832;SDS011;71099;59.528;17.886;2024-03-06T02:22:49;7.57;;;4.97;;
70832;SDS011;71099;59.528;17.886;2024-03-06T02:25:15;10.77;;;6.05;;
70832;SDS011;71099;59.528;17.886;2024-03-06T02:27:42;10.23;;;4.78;;
70832;SDS011;71099;59.528;17.886;2024-03-06T02:30:08;9.40;;;5.75;;
70832;SDS011;71099;59.528;17.886;2024-03-06T02:32:36;11.55;;;4.72;;
70832;SDS011;71099;59.528;17.886;2024-03-06T02:35:01;13.65;;;5.10;;
70832;SDS011;71099;59.528;17.886;2024-03-06T02:37:28;8.35;;;4.93;;
70832;SDS011;71099;59.528;17.886;2024-03-06T02:39:54;8.30;;;4.13;;
70832;SDS011;71099;59.528;17.886;2024-03-06T02:42:19;8.93;;;4.38;;
70832;SDS011;71099;59.528;17.886;2024-03-06T02:44:45;8.75;;;4.00;;
70832;SDS011;71099;59.528;17.886;2024-03-06T02:47:10;9.30;;;4.88;;
70832;SDS011;71099;59.528;17.886;2024-03-06T02:49:35;9.63;;;4.68;;
70832;SDS011;71099;59.528;17.886;2024-03-06T02:52:01;10.55;;;4.53;;
70832;SDS011;71099;59.528;17.886;2024-03-06T02:54:27;6.82;;;4.57;;
70832;SDS011;71099;59.528;17.886;2024-03-06T02:56:52;14.55;;;6.50;;
70832;SDS011;71099;59.528;17.886;2024-03-06T02:59:17;9.70;;;5.80;;
70832;SDS011;71099;59.528;17.886;2024-03-06T03:01:43;7.97;;;4.07;;
70832;SDS011;71099;59.528;17.886;2024-03-06T03:04:09;7.32;;;4.47;;
70832;SDS011;71099;59.528;17.886;2024-03-06T03:06:36;11.32;;;4.93;;
70832;SDS011;71099;59.528;17.886;2024-03-06T03:09:01;11.63;;;5.15;;
70832;SDS011;71099;59.528;17.886;2024-03-06T03:11:28;15.02;;;5.50;;
70832;SDS011;71099;59.528;17.886;2024-03-06T03:13:54;10.85;;;6.35;;
70832;SDS011;71099;59.528;17.886;2024-03-06T03:16:20;10.20;;;5.43;;
70832;SDS011;71099;59.528;17.886;2024-03-06T03:18:49;8.15;;;4.43;;
70832;SDS011;71099;59.528;17.886;2024-03-06T03:21:15;7.68;;;3.58;;
70832;SDS011;71099;59.528;17.886;2024-03-06T03:23:40;7.00;;;3.70;;
70832;SDS011;71099;59.528;17.886;2024-03-06T03:26:07;9.63;;;5.70;;
70832;SDS011;71099;59.528;17.886;2024-03-06T03:28:37;11.80;;;4.32;;
70832;SDS011;71099;59.528;17.886;2024-03-06T03:31:06;9.70;;;4.55;;
70832;SDS011;71099;59.528;17.886;2024-03-06T03:33:34;9.40;;;5.05;;
70832;SDS011;71099;59.528;17.886;2024-03-06T03:36:03;11.40;;;3.95;;
70832;SDS011;71099;59.528;17.886;2024-03-06T03:38:29;6.18;;;3.58;;
70832;SDS011;71099;59.528;17.886;2024-03-06T03:40:55;8.77;;;3.47;;
70832;SDS011;71099;59.528;17.886;2024-03-06T03:43:20;7.55;;;3.63;;
70832;SDS011;71099;59.528;17.886;2024-03-06T03:45:46;7.72;;;4.57;;
70832;SDS011;71099;59.528;17.886;2024-03-06T03:48:11;8.68;;;4.03;;
70832;SDS011;71099;59.528;17.886;2024-03-06T03:50:37;8.77;;;3.85;;
70832;SDS011;71099;59.528;17.886;2024-03-06T03:53:02;7.82;;;3.63;;
70832;SDS011;71099;59.528;17.886;2024-03-06T03:55:29;8.50;;;4.10;;
70832;SDS011;71099;59.528;17.886;2024-03-06T03:57:54;10.55;;;4.65;;
70832;SDS011;71099;59.528;17.886;2024-03-06T04:00:20;6.65;;;4.35;;
70832;SDS011;71099;59.528;17.886;2024-03-06T04:02:45;9.68;;;4.68;;
70832;SDS011;71099;59.528;17.886;2024-03-06T04:05:11;10.27;;;3.80;;
70832;SDS011;71099;59.528;17.886;2024-03-06T04:07:37;7.20;;;3.78;;
70832;SDS011;71099;59.528;17.886;2024-03-06T04:10:03;7.88;;;3.40;;
70832;SDS011;71099;59.528;17.886;2024-03-06T04:12:29;8.75;;;4.60;;
70832;SDS011;71099;59.528;17.886;2024-03-06T04:14:54;8.15;;;4.53;;
70832;SDS011;71099;59.528;17.886;2024-03-06T04:17:20;8.77;;;4.20;;
70832;SDS011;71099;59.528;17.886;2024-03-06T04:19:45;6.50;;;3.42;;
70832;SDS011;71099;59.528;17.886;2024-03-06T04:22:13;12.40;;;3.75;;
70832;SDS011;71099;59.528;17.886;2024-03-06T04:24:40;8.68;;;4.68;;
70832;SDS011;71099;59.528;17.886;2024-03-06T04:27:07;5.05;;;3.50;;
70832;SDS011;71099;59.528;17.886;2024-03-06T04:29:33;8.73;;;3.40;;
70832;SDS011;71099;59.528;17.886;2024-03-06T04:31:58;7.45;;;3.33;;
70832;SDS011;71099;59.528;17.886;2024-03-06T04:34:24;8.55;;;3.80;;
70832;SDS011;71099;59.528;17.886;2024-03-06T04:36:49;9.35;;;5.05;;
70832;SDS011;71099;59.528;17.886;2024-03-06T04:39:15;7.60;;;2.95;;
70832;SDS011;71099;59.528;17.886;2024-03-06T04:41:40;7.45;;;4.28;;
70832;SDS011;71099;59.528;17.886;2024-03-06T04:44:05;8.18;;;4.65;;
70832;SDS011;71099;59.528;17.886;2024-03-06T04:46:31;8.48;;;4.03;;
70832;SDS011;71099;59.528;17.886;2024-03-06T04:48:56;16.30;;;3.97;;
70832;SDS011;71099;59.528;17.886;2024-03-06T04:51:22;6.45;;;3.70;;
70832;SDS011;71099;59.528;17.886;2024-03-06T04:53:47;4.50;;;3.05;;
70832;SDS011;71099;59.528;17.886;2024-03-06T04:56:13;6.72;;;3.33;;
70832;SDS011;71099;59.528;17.886;2024-03-06T04:58:40;10.10;;;4.68;;
70832;SDS011;71099;59.528;17.886;2024-03-06T05:01:05;7.55;;;3.13;;
70832;SDS011;71099;59.528;17.886;2024-03-06T05:03:31;6.28;;;2.92;;
70832;SDS011;71099;59.528;17.886;2024-03-06T05:05:57;7.07;;;3.38;;
70832;SDS011;71099;59.528;17.886;2024-03-06T05:08:22;6.50;;;2.67;;
70832;SDS011;71099;59.528;17.886;2024-03-06T05:10:48;5.40;;;3.05;;
70832;SDS011;71099;59.528;17.886;2024-03-06T05:13:13;8.30;;;3.05;;
70832;SDS011;71099;59.528;17.886;2024-03-06T05:15:39;7.47;;;2.88;;
70832;SDS011;71099;59.528;17.886;2024-03-06T05:18:04;7.97;;;3.28;;
70832;SDS011;71099;59.528;17.886;2024-03-06T05:20:30;11.15;;;3.10;;
70832;SDS011;71099;59.528;17.886;2024-03-06T05:22:56;7.00;;;3.30;;
70832;SDS011;71099;59.528;17.886;2024-03-06T05:25:22;7.35;;;3.38;;
70832;SDS011;71099;59.528;17.886;2024-03-06T05:27:47;9.88;;;3.50;;
70832;SDS011;71099;59.528;17.886;2024-03-06T05:30:13;5.03;;;3.22;;
70832;SDS011;71099;59.528;17.886;2024-03-06T05:32:39;7.43;;;2.95;;
70832;SDS011;71099;59.528;17.886;2024-03-06T05:35:06;7.60;;;4.28;;
70832;SDS011;71099;59.528;17.886;2024-03-06T05:37:34;12.45;;;3.25;;
70832;SDS011;71099;59.528;17.886;2024-03-06T05:40:00;5.32;;;2.80;;
70832;SDS011;71099;59.528;17.886;2024-03-06T05:42:30;6.55;;;4.00;;
70832;SDS011;71099;59.528;17.886;2024-03-06T05:44:59;6.07;;;3.03;;
70832;SDS011;71099;59.528;17.886;2024-03-06T05:47:33;4.85;;;3.08;;
70832;SDS011;71099;59.528;17.886;2024-03-06T05:49:59;4.38;;;2.70;;
70832;SDS011;71099;59.528;17.886;2024-03-06T05:52:24;6.32;;;3.17;;
70832;SDS011;71099;59.528;17.886;2024-03-06T05:54:50;7.75;;;3.08;;
70832;SDS011;71099;59.528;17.886;2024-03-06T05:57:18;7.65;;;3.20;;
70832;SDS011;71099;59.528;17.886;2024-03-06T05:59:43;5.93;;;2.65;;
70832;SDS011;71099;59.528;17.886;2024-03-06T06:02:09;5.97;;;3.08;;
70832;SDS011;71099;59.528;17.886;2024-03-06T06:04:35;4.07;;;2.72;;
70832;SDS011;71099;59.528;17.886;2024-03-06T06:07:00;8.15;;;3.42;;
70832;SDS011;71099;59.528;17.886;2024-03-06T06:09:26;6.45;;;2.88;;
70832;SDS011;71099;59.528;17.886;2024-03-06T06:11:51;5.68;;;3.55;;
70832;SDS011;71099;59.528;17.886;2024-03-06T06:14:17;8.23;;;3.08;;
70832;SDS011;71099;59.528;17.886;2024-03-06T06:16:42;4.68;;;3.08;;
70832;SDS011;71099;59.528;17.886;2024-03-06T06:19:08;6.45;;;2.47;;
70832;SDS011;71099;59.528;17.886;2024-03-06T06:21:34;4.75;;;2.78;;
70832;SDS011;71099;59.528;17.886;2024-03-06T06:24:01;4.13;;;3.10;;
70832;SDS011;71099;59.528;17.886;2024-03-06T06:26:28;10.75;;;3.47;;
70832;SDS011;71099;59.528;17.886;2024-03-06T06:28:54;4.88;;;2.22;;
70832;SDS011;71099;59.528;17.886;2024-03-06T06:31:20;5.50;;;2.40;;
70832;SDS011;71099;59.528;17.886;2024-03-06T06:33:45;7.13;;;2.40;;
70832;SDS011;71099;59.528;17.886;2024-03-06T06:36:12;4.30;;;2.35;;
70832;SDS011;71099;59.528;17.886;2024-03-06T06:38:37;5.20;;;2.53;;
70832;SDS011;71099;59.528;17.886;2024-03-06T06:41:03;2.97;;;2.67;;
70832;SDS011;71099;59.528;17.886;2024-03-06T06:43:28;7.95;;;3.35;;
70832;SDS011;71099;59.528;17.886;2024-03-06T06:45:54;3.88;;;2.70;;
70832;SDS011;71099;59.528;17.886;2024-03-06T06:48:19;4.70;;;2.17;;
70832;SDS011;71099;59.528;17.886;2024-03-06T06:50:45;16.48;;;3.53;;
70832;SDS011;71099;59.528;17.886;2024-03-06T06:53:12;4.65;;;2.08;;
70832;SDS011;71099;59.528;17.886;2024-03-06T06:55:40;4.75;;;3.30;;
70832;SDS011;71099;59.528;17.886;2024-03-06T06:58:05;9.50;;;4.25;;
70832;SDS011;71099;59.528;17.886;2024-03-06T07:00:33;6.70;;;3.33;;
70832;SDS011;71099;59.528;17.886;2024-03-06T07:02:59;6.60;;;2.45;;
70832;SDS011;71099;59.528;17.886;2024-03-06T07:05:25;4.10;;;2.33;;
70832;SDS011;71099;59.528;17.886;2024-03-06T07:07:51;8.07;;;2.17;;
70832;SDS011;71099;59.528;17.886;2024-03-06T07:10:18;3.53;;;2.22;;
70832;SDS011;71099;59.528;17.886;2024-03-06T07:12:44;5.60;;;2.70;;
70832;SDS011;71099;59.528;17.886;2024-03-06T07:15:09;5.47;;;2.60;;
70832;SDS011;71099;59.528;17.886;2024-03-06T07:17:35;5.07;;;2.50;;
70832;SDS011;71099;59.528;17.886;2024-03-06T07:20:00;8.02;;;2.38;;
70832;SDS011;71099;59.528;17.886;2024-03-06T07:22:26;4.47;;;2.92;;
70832;SDS011;71099;59.528;17.886;2024-03-06T07:24:51;6.32;;;2.60;;
70832;SDS011;71099;59.528;17.886;2024-03-06T07:27:17;6.10;;;2.22;;
70832;SDS011;71099;59.528;17.886;2024-03-06T07:29:44;6.35;;;2.65;;
70832;SDS011;71099;59.528;17.886;2024-03-06T07:32:09;4.40;;;1.80;;
70832;SDS011;71099;59.528;17.886;2024-03-06T07:34:35;7.28;;;3.33;;
70832;SDS011;71099;59.528;17.886;2024-03-06T07:37:01;4.65;;;2.03;;
70832;SDS011;71099;59.528;17.886;2024-03-06T07:39:26;9.60;;;3.97;;
70832;SDS011;71099;59.528;17.886;2024-03-06T07:41:52;5.45;;;2.30;;
70832;SDS011;71099;59.528;17.886;2024-03-06T07:44:19;3.65;;;2.28;;
70832;SDS011;71099;59.528;17.886;2024-03-06T07:46:45;5.60;;;2.10;;
70832;SDS011;71099;59.528;17.886;2024-03-06T07:49:11;5.45;;;3.08;;
70832;SDS011;71099;59.528;17.886;2024-03-06T07:51:36;4.15;;;2.65;;
70832;SDS011;71099;59.528;17.886;2024-03-06T07:54:02;4.38;;;2.08;;
70832;SDS011;71099;59.528;17.886;2024-03-06T07:56:29;6.70;;;2.53;;
70832;SDS011;71099;59.528;17.886;2024-03-06T07:58:54;3.33;;;2.30;;
70832;SDS011;71099;59.528;17.886;2024-03-06T08:01:21;4.43;;;2.47;;
70832;SDS011;71099;59.528;17.886;2024-03-06T08:03:47;5.45;;;2.90;;
70832;SDS011;71099;59.528;17.886;2024-03-06T08:06:12;4.47;;;3.00;;
70832;SDS011;71099;59.528;17.886;2024-03-06T08:08:41;5.90;;;2.97;;
70832;SDS011;71099;59.528;17.886;2024-03-06T08:11:09;3.80;;;2.55;;
70832;SDS011;71099;59.528;17.886;2024-03-06T08:13:36;4.85;;;2.20;;
70832;SDS011;71099;59.528;17.886;2024-03-06T08:16:02;5.18;;;2.40;;
70832;SDS011;71099;59.528;17.886;2024-03-06T08:18:29;4.68;;;2.40;;
70832;SDS011;71099;59.528;17.886;2024-03-06T08:20:54;4.32;;;2.13;;
70832;SDS011;71099;59.528;17.886;2024-03-06T08:23:20;5.90;;;2.10;;
70832;SDS011;71099;59.528;17.886;2024-03-06T08:25:45;6.10;;;2.80;;
70832;SDS011;71099;59.528;17.886;2024-03-06T08:28:11;4.18;;;2.20;;
70832;SDS011;71099;59.528;17.886;2024-03-06T08:30:37;4.38;;;1.90;;
70832;SDS011;71099;59.528;17.886;2024-03-06T08:33:02;5.05;;;2.55;;
70832;SDS011;71099;59.528;17.886;2024-03-06T08:35:29;5.07;;;2.28;;
70832;SDS011;71099;59.528;17.886;2024-03-06T08:37:55;4.57;;;2.42;;
70832;SDS011;71099;59.528;17.886;2024-03-06T08:40:20;2.60;;;1.95;;
70832;SDS011;71099;59.528;17.886;2024-03-06T08:42:46;6.40;;;2.78;;
70832;SDS011;71099;59.528;17.886;2024-03-06T08:45:12;7.10;;;2.63;;
70832;SDS011;71099;59.528;17.886;2024-03-06T08:47:39;7.82;;;2.80;;
70832;SDS011;71099;59.528;17.886;2024-03-06T08:50:05;5.60;;;2.33;;
70832;SDS011;71099;59.528;17.886;2024-03-06T08:52:32;5.55;;;1.95;;
70832;SDS011;71099;59.528;17.886;2024-03-06T08:54:59;5.57;;;3.30;;
70832;SDS011;71099;59.528;17.886;2024-03-06T08:57:26;2.58;;;2.03;;
70832;SDS011;71099;59.528;17.886;2024-03-06T08:59:56;7.38;;;2.22;;
70832;SDS011;71099;59.528;17.886;2024-03-06T09:02:24;7.95;;;2.28;;
70832;SDS011;71099;59.528;17.886;2024-03-06T09:04:50;3.90;;;2.05;;
70832;SDS011;71099;59.528;17.886;2024-03-06T09:07:19;3.22;;;1.88;;
70832;SDS011;71099;59.528;17.886;2024-03-06T09:09:48;7.93;;;1.75;;
70832;SDS011;71099;59.528;17.886;2024-03-06T09:12:14;7.10;;;3.10;;
70832;SDS011;71099;59.528;17.886;2024-03-06T09:14:40;4.13;;;2.35;;
70832;SDS011;71099;59.528;17.886;2024-03-06T09:17:09;5.90;;;2.08;;
70832;SDS011;71099;59.528;17.886;2024-03-06T09:19:35;3.05;;;2.17;;
70832;SDS011;71099;59.528;17.886;2024-03-06T09:22:00;6.43;;;3.00;;
70832;SDS011;71099;59.528;17.886;2024-03-06T09:24:27;3.17;;;2.33;;
70832;SDS011;71099;59.528;17.886;2024-03-06T09:26:54;6.22;;;1.88;;
70832;SDS011;71099;59.528;17.886;2024-03-06T09:29:19;6.15;;;2.17;;
70832;SDS011;71099;59.528;17.886;2024-03-06T09:31:45;6.47;;;1.80;;
70832;SDS011;71099;59.528;17.886;2024-03-06T09:34:12;4.60;;;1.83;;
70832;SDS011;71099;59.528;17.886;2024-03-06T09:36:41;3.53;;;1.75;;
70832;SDS011;71099;59.528;17.886;2024-03-06T09:39:11;3.80;;;1.70;;
70832;SDS011;71099;59.528;17.886;2024-03-06T09:41:46;2.85;;;1.80;;
70832;SDS011;71099;59.528;17.886;2024-03-06T09:44:12;4.90;;;2.35;;
70832;SDS011;71099;59.528;17.886;2024-03-06T09:46:48;8.15;;;1.95;;
70832;SDS011;71099;59.528;17.886;2024-03-06T09:49:18;7.30;;;2.10;;
70832;SDS011;71099;59.528;17.886;2024-03-06T09:51:48;7.97;;;1.80;;
70832;SDS011;71099;59.528;17.886;2024-03-06T09:54:15;8.80;;;2.92;;
70832;SDS011;71099;59.528;17.886;2024-03-06T09:56:45;2.35;;;1.85;;
70832;SDS011;71099;59.528;17.886;2024-03-06T09:59:11;2.78;;;1.50;;
70832;SDS011;71099;59.528;17.886;2024-03-06T10:01:50;5.13;;;1.60;;
70832;SDS011;71099;59.528;17.886;2024-03-06T10:04:20;6.07;;;1.92;;
70832;SDS011;71099;59.528;17.886;2024-03-06T10:06:46;6.10;;;1.75;;
70832;SDS011;71099;59.528;17.886;2024-03-06T10:09:12;6.35;;;1.50;;
70832;SDS011;71099;59.528;17.886;2024-03-06T10:11:38;4.90;;;2.15;;
70832;SDS011;71099;59.528;17.886;2024-03-06T10:14:05;6.93;;;2.42;;
70832;SDS011;71099;59.528;17.886;2024-03-06T10:16:30;2.72;;;1.73;;
70832;SDS011;71099;59.528;17.886;2024-03-06T10:18:56;4.57;;;1.75;;
70832;SDS011;71099;59.528;17.886;2024-03-06T10:21:30;2.88;;;2.22;;
70832;SDS011;71099;59.528;17.886;2024-03-06T10:24:00;4.40;;;1.77;;
70832;SDS011;71099;59.528;17.886;2024-03-06T10:26:25;4.20;;;1.67;;
70832;SDS011;71099;59.528;17.886;2024-03-06T10:28:51;4.40;;;1.52;;
70832;SDS011;71099;59.528;17.886;2024-03-06T10:31:26;3.72;;;2.20;;
70832;SDS011;71099;59.528;17.886;2024-03-06T10:33:55;2.90;;;2.20;;
70832;SDS011;71099;59.528;17.886;2024-03-06T10:36:20;2.70;;;1.60;;
70832;SDS011;71099;59.528;17.886;2024-03-06T10:38:46;5.18;;;1.92;;
70832;SDS011;71099;59.528;17.886;2024-03-06T10:41:15;3.10;;;2.53;;
70832;SDS011;71099;59.528;17.886;2024-03-06T10:43:44;3.30;;;1.83;;
70832;SDS011;71099;59.528;17.886;2024-03-06T10:46:13;3.20;;;2.28;;
70832;SDS011;71099;59.528;17.886;2024-03-06T10:48:39;4.03;;;1.60;;
70832;SDS011;71099;59.528;17.886;2024-03-06T10:51:07;3.67;;;1.92;;
70832;SDS011;71099;59.528;17.886;2024-03-06T10:53:35;4.40;;;1.80;;
70832;SDS011;71099;59.528;17.886;2024-03-06T10:56:03;5.38;;;1.63;;
70832;SDS011;71099;59.528;17.886;2024-03-06T10:58:33;6.20;;;2.15;;
70832;SDS011;71099;59.528;17.886;2024-03-06T11:01:00;2.58;;;1.60;;
70832;SDS011;71099;59.528;17.886;2024-03-06T11:03:27;3.42;;;1.67;;
70832;SDS011;71099;59.528;17.886;2024-03-06T11:05:55;7.57;;;1.63;;
70832;SDS011;71099;59.528;17.886;2024-03-06T11:08:21;2.55;;;1.40;;
70832;SDS011;71099;59.528;17.886;2024-03-06T11:10:47;3.05;;;1.58;;
70832;SDS011;71099;59.528;17.886;2024-03-06T11:13:22;3.63;;;2.22;;
70832;SDS011;71099;59.528;17.886;2024-03-06T11:15:49;5.03;;;1.95;;
70832;SDS011;71099;59.528;17.886;2024-03-06T11:21:37;3.72;;;1.73;;
70832;SDS011;71099;59.528;17.886;2024-03-06T11:26:47;7.32;;;2.22;;
70832;SDS011;71099;59.528;17.886;2024-03-06T11:29:18;9.95;;;2.10;;
70832;SDS011;71099;59.528;17.886;2024-03-06T11:32:06;6.90;;;2.10;;
70832;SDS011;71099;59.528;17.886;2024-03-06T11:34:36;5.45;;;1.85;;
70832;SDS011;71099;59.528;17.886;2024-03-06T11:37:06;2.95;;;1.83;;
70832;SDS011;71099;59.528;17.886;2024-03-06T11:39:37;2.70;;;1.75;;
70832;SDS011;71099;59.528;17.886;2024-03-06T11:42:04;5.00;;;1.88;;
70832;SDS011;71099;59.528;17.886;2024-03-06T11:44:33;6.40;;;2.60;;
70832;SDS011;71099;59.528;17.886;2024-03-06T11:47:00;2.03;;;1.27;;
70832;SDS011;71099;59.528;17.886;2024-03-06T11:49:30;4.80;;;1.80;;
70832;SDS011;71099;59.528;17.886;2024-03-06T11:52:03;5.63;;;1.92;;
70832;SDS011;71099;59.528;17.886;2024-03-06T11:54:33;6.95;;;2.03;;
70832;SDS011;71099;59.528;17.886;2024-03-06T11:57:00;3.92;;;1.30;;
70832;SDS011;71099;59.528;17.886;2024-03-06T11:59:31;3.70;;;1.40;;
70832;SDS011;71099;59.528;17.886;2024-03-06T12:01:58;3.63;;;1.42;;
70832;SDS011;71099;59.528;17.886;2024-03-06T12:04:29;5.25;;;1.95;;
70832;SDS011;71099;59.528;17.886;2024-03-06T12:06:59;8.05;;;1.70;;
70832;SDS011;71099;59.528;17.886;2024-03-06T12:09:30;4.35;;;1.80;;
70832;SDS011;71099;59.528;17.886;2024-03-06T12:11:57;4.00;;;1.35;;
70832;SDS011;71099;59.528;17.886;2024-03-06T12:14:23;3.40;;;1.55;;
70832;SDS011;71099;59.528;17.886;2024-03-06T12:19:27;2.63;;;1.35;;
70832;SDS011;71099;59.528;17.886;2024-03-06T12:21:53;5.40;;;1.83;;
70832;SDS011;71099;59.528;17.886;2024-03-06T12:24:19;4.90;;;1.40;;
70832;SDS011;71099;59.528;17.886;2024-03-06T12:26:44;3.47;;;1.70;;
70832;SDS011;71099;59.528;17.886;2024-03-06T12:29:11;2.25;;;1.48;;
70832;SDS011;71099;59.528;17.886;2024-03-06T12:31:37;3.05;;;1.50;;
70832;SDS011;71099;59.528;17.886;2024-03-06T12:34:04;3.95;;;1.52;;
70832;SDS011;71099;59.528;17.886;2024-03-06T12:36:33;7.80;;;2.00;;
70832;SDS011;71099;59.528;17.886;2024-03-06T12:38:59;2.53;;;1.55;;
70832;SDS011;71099;59.528;17.886;2024-03-06T12:41:27;5.53;;;2.03;;
70832;SDS011;71099;59.528;17.886;2024-03-06T12:43:53;5.70;;;2.13;;
70832;SDS011;71099;59.528;17.886;2024-03-06T12:46:20;3.05;;;1.55;;
70832;SDS011;71099;59.528;17.886;2024-03-06T12:48:45;6.07;;;1.50;;
70832;SDS011;71099;59.528;17.886;2024-03-06T12:51:11;3.42;;;1.77;;
70832;SDS011;71099;59.528;17.886;2024-03-06T12:53:37;5.88;;;1.63;;
70832;SDS011;71099;59.528;17.886;2024-03-06T12:56:02;4.45;;;2.03;;
70832;SDS011;71099;59.528;17.886;2024-03-06T12:58:31;9.43;;;2.55;;
70832;SDS011;71099;59.528;17.886;2024-03-06T13:00:57;2.35;;;1.55;;
70832;SDS011;71099;59.528;17.886;2024-03-06T13:03:23;5.93;;;1.85;;
70832;SDS011;71099;59.528;17.886;2024-03-06T13:05:49;6.85;;;1.88;;
70832;SDS011;71099;59.528;17.886;2024-03-06T13:08:15;5.90;;;1.85;;
70832;SDS011;71099;59.528;17.886;2024-03-06T13:10:41;5.28;;;1.65;;
70832;SDS011;71099;59.528;17.886;2024-03-06T13:13:07;4.90;;;1.95;;
70832;SDS011;71099;59.528;17.886;2024-03-06T13:15:33;6.00;;;2.25;;
70832;SDS011;71099;59.528;17.886;2024-03-06T13:17:59;7.10;;;2.13;;
70832;SDS011;71099;59.528;17.886;2024-03-06T13:20:28;3.38;;;1.55;;
70832;SDS011;71099;59.528;17.886;2024-03-06T13:22:57;4.38;;;2.28;;
70832;SDS011;71099;59.528;17.886;2024-03-06T13:25:23;5.35;;;1.80;;
70832;SDS011;71099;59.528;17.886;2024-03-06T13:27:49;4.80;;;2.30;;
70832;SDS011;71099;59.528;17.886;2024-03-06T13:30:15;6.03;;;1.77;;
70832;SDS011;71099;59.528;17.886;2024-03-06T13:32:41;7.50;;;1.65;;
70832;SDS011;71099;59.528;17.886;2024-03-06T13:35:13;5.10;;;1.80;;
70832;SDS011;71099;59.528;17.886;2024-03-06T13:37:39;1.77;;;1.30;;
70832;SDS011;71099;59.528;17.886;2024-03-06T13:40:06;4.50;;;1.40;;
70832;SDS011;71099;59.528;17.886;2024-03-06T13:42:33;3.38;;;1.55;;
70832;SDS011;71099;59.528;17.886;2024-03-06T13:45:00;5.32;;;1.52;;
70832;SDS011;71099;59.528;17.886;2024-03-06T13:47:26;13.73;;;3.45;;
70832;SDS011;71099;59.528;17.886;2024-03-06T13:49:53;2.42;;;1.35;;
70832;SDS011;71099;59.528;17.886;2024-03-06T13:52:20;4.22;;;1.88;;
70832;SDS011;71099;59.528;17.886;2024-03-06T13:54:46;4.65;;;1.90;;
70832;SDS011;71099;59.528;17.886;2024-03-06T13:57:13;4.38;;;1.73;;
70832;SDS011;71099;59.528;17.886;2024-03-06T13:59:39;3.08;;;1.83;;
70832;SDS011;71099;59.528;17.886;2024-03-06T14:02:05;2.05;;;1.50;;
70832;SDS011;71099;59.528;17.886;2024-03-06T14:04:31;6.10;;;2.03;;
70832;SDS011;71099;59.528;17.886;2024-03-06T14:06:57;5.28;;;1.52;;
70832;SDS011;71099;59.528;17.886;2024-03-06T14:09:23;7.60;;;1.67;;
70832;SDS011;71099;59.528;17.886;2024-03-06T14:11:50;3.25;;;1.70;;
70832;SDS011;71099;59.528;17.886;2024-03-06T14:14:16;7.78;;;2.72;;
70832;SDS011;71099;59.528;17.886;2024-03-06T14:16:42;3.13;;;1.85;;
70832;SDS011;71099;59.528;17.886;2024-03-06T14:19:08;2.63;;;1.75;;
70832;SDS011;71099;59.528;17.886;2024-03-06T14:21:35;5.43;;;1.48;;
70832;SDS011;71099;59.528;17.886;2024-03-06T14:24:01;3.15;;;1.45;;
70832;SDS011;71099;59.528;17.886;2024-03-06T14:26:34;4.35;;;2.25;;
70832;SDS011;71099;59.528;17.886;2024-03-06T14:29:03;3.42;;;1.58;;
70832;SDS011;71099;59.528;17.886;2024-03-06T14:31:31;3.35;;;1.30;;
70832;SDS011;71099;59.528;17.886;2024-03-06T14:33:57;5.22;;;1.70;;
70832;SDS011;71099;59.528;17.886;2024-03-06T14:36:22;4.43;;;2.00;;
70832;SDS011;71099;59.528;17.886;2024-03-06T14:38:49;3.17;;;1.67;;